Rio Orinoco — V7VX7 — position and weather

sailwx.info

Track history (hours):
 
Tides and Currents Weather Stations Pressure Air Temp Water Temp Dewpoint Dewpoint Depression Visibility Wind Speed Wind Dir Waves Ship Positions

Rio Orinoco

Last reported at 2017-Aug-02 03:53 UTC. Time now 2017-Oct-17 09:58 UTC.
Position N 01°16' E 103°23'.
Warning: this ship's position is months out of date.

Length 274 m; draft 9.4 m.

Type: Tanker. MMSI: 538004236.

Date/timePositionNaut miles runAvg speedWind from/ knotsBaromVisibWave heightAir tempDewpointWater temp
2017-Aug-02 03:53N 01°16' E 103°23'613.6
2017-Aug-02 03:28N 01°13' E 103°28'613.4
2017-Aug-02 02:59N 01°12' E 103°35'612.8
2017-Aug-02 02:30N 01°10' E 103°40'612.1
2017-Aug-02 02:00N 01°10' E 103°46'  
2017-Jul-23 20:17N 32°22' E 127°15'812.3
2017-Jul-23 19:39N 32°30' E 127°17'412.4
2017-Jul-23 19:19N 32°34' E 127°19'412.3
2017-Jul-23 18:59N 32°38' E 127°20'612.0
2017-Jul-23 18:30N 32°43' E 127°22'1411.7
2017-Jul-23 17:17N 32°57' E 127°27'311.8
2017-Jul-23 17:00N 33°00' E 127°28'611.9
2017-Jul-23 16:30N 33°06' E 127°30'611.8
2017-Jul-23 16:00N 33°12' E 127°32'611.6
2017-Jul-23 15:30N 33°17' E 127°33'  
Track history (hours):
 
Tides and Currents Weather Stations Pressure Air Temp Water Temp Dewpoint Dewpoint Depression Visibility Wind Speed Wind Dir Waves Ship Positions

Rio Orinoco

Last reported at 2017-Aug-02 03:53 UTC. Time now 2017-Oct-17 09:58 UTC.
Position N 01°16' E 103°23'.
Warning: this ship's position is months out of date.

Length 274 m; draft 9.4 m.

Type: Tanker. MMSI: 538004236.

Date/timePositionNaut miles runAvg speedWind from/ knotsBaromVisibWave heightAir tempDewpointWater temp
2017-Aug-02 03:53N 01°16' E 103°23'613.6
2017-Aug-02 03:28N 01°13' E 103°28'613.4
2017-Aug-02 02:59N 01°12' E 103°35'612.8
2017-Aug-02 02:30N 01°10' E 103°40'612.1
2017-Aug-02 02:00N 01°10' E 103°46'  
2017-Jul-23 20:17N 32°22' E 127°15'812.3
2017-Jul-23 19:39N 32°30' E 127°17'412.4
2017-Jul-23 19:19N 32°34' E 127°19'412.3
2017-Jul-23 18:59N 32°38' E 127°20'612.0
2017-Jul-23 18:30N 32°43' E 127°22'1411.7
2017-Jul-23 17:17N 32°57' E 127°27'311.8
2017-Jul-23 17:00N 33°00' E 127°28'611.9
2017-Jul-23 16:30N 33°06' E 127°30'611.8
2017-Jul-23 16:00N 33°12' E 127°32'611.6
2017-Jul-23 15:30N 33°17' E 127°33'  

Dump ship's entire track history